Time;durP1;ratioP1;P1;durP2;ratioP2;P2;SDS_P1;SDS_P2;PMS_P1;PMS_P2;Temp;Humidity;BMP_temperature;BMP_pressure;BME280_temperature;BME280_humidity;BME280_pressure;Samples;Min_cycle;Max_cycle;Signal;HPM_P1;HPM_P2
2022/07/06 00:00:17;;;;;;;4.00;2.13;;;;;;;22.32;45.44;101196.31;5032847;28;20240;-65
2022/07/06 00:02:45;;;;;;;6.47;2.50;;;;;;;22.30;45.59;101189.44;5027146;28;20779;-65
2022/07/06 00:05:13;;;;;;;3.13;2.03;;;;;;;22.30;45.56;101197.56;5024912;28;20578;-65
2022/07/06 00:07:41;;;;;;;5.47;2.13;;;;;;;22.29;45.65;101190.47;5032957;28;20223;-65
2022/07/06 00:10:09;;;;;;;6.20;2.80;;;;;;;22.29;45.86;101193.19;5032874;28;20208;-65
2022/07/06 00:12:36;;;;;;;7.03;2.30;;;;;;;22.23;46.06;101202.13;5031899;28;20247;-65
2022/07/06 00:15:06;;;;;;;8.27;2.30;;;;;;;22.23;46.19;101207.53;5031318;28;20413;-65
2022/07/06 00:17:35;;;;;;;3.73;2.07;;;;;;;22.17;46.19;101195.66;5032746;28;20233;-65
2022/07/06 00:20:03;;;;;;;5.80;2.23;;;;;;;22.11;46.51;101202.72;5032873;28;20200;-65
2022/07/06 00:22:31;;;;;;;5.93;2.23;;;;;;;22.08;46.75;101211.22;5032475;28;20284;-65
2022/07/06 00:24:59;;;;;;;8.83;2.30;;;;;;;22.09;46.69;101212.06;5034148;28;20209;-65
2022/07/06 00:27:26;;;;;;;5.17;2.80;;;;;;;22.09;46.88;101212.91;5031736;28;20255;-66
2022/07/06 00:29:54;;;;;;;5.23;2.07;;;;;;;22.10;47.04;101214.56;5032484;28;20698;-65
2022/07/06 00:32:25;;;;;;;7.83;2.10;;;;;;;22.09;46.80;101212.91;5031943;28;20566;-65
2022/07/06 00:34:52;;;;;;;4.73;2.30;;;;;;;21.98;46.74;101213.53;5032174;28;20232;-65
2022/07/06 00:37:22;;;;;;;6.43;2.40;;;;;;;21.96;47.14;101212.84;5031989;28;20327;-65
2022/07/06 00:39:50;;;;;;;3.70;2.17;;;;;;;21.94;47.36;101219.50;5032618;28;20212;-65
2022/07/06 00:42:18;;;;;;;4.90;2.27;;;;;;;21.90;47.51;101221.75;5032060;28;20204;-66
2022/07/06 00:44:46;;;;;;;5.83;2.40;;;;;;;21.84;47.27;101214.47;5030749;28;20680;-65
2022/07/06 00:47:13;;;;;;;6.50;2.30;;;;;;;21.83;47.74;101212.81;5032284;28;20239;-65
2022/07/06 00:52:28;;;;;;;8.13;2.37;;;;;;;21.73;47.83;101209.66;5031410;28;20299;-65
2022/07/06 00:54:56;;;;;;;5.17;2.07;;;;;;;21.73;47.84;101217.75;5029012;28;20254;-65
2022/07/06 00:57:24;;;;;;;6.03;2.23;;;;;;;21.69;48.24;101211.94;5019092;28;20239;-65
2022/07/06 00:59:52;;;;;;;4.67;2.23;;;;;;;21.66;48.13;101216.91;5013456;28;20296;-64
2022/07/06 01:02:20;;;;;;;3.20;2.03;;;;;;;21.65;47.92;101217.94;5015071;28;20223;-63
2022/07/06 01:04:49;;;;;;;4.43;1.83;;;;;;;21.64;47.90;101213.56;5032115;28;20201;-64
2022/07/06 01:07:17;;;;;;;4.83;2.17;;;;;;;21.54;48.26;101213.97;5024193;28;20213;-64
2022/07/06 01:09:44;;;;;;;3.33;2.07;;;;;;;21.51;48.06;101216.25;5020547;28;20208;-65
2022/07/06 01:12:12;;;;;;;4.70;2.03;;;;;;;21.48;48.47;101213.94;5030899;28;20348;-64
2022/07/06 01:14:41;;;;;;;5.70;2.03;;;;;;;21.43;48.36;101206.47;5026851;28;20572;-64
2022/07/06 01:17:09;;;;;;;2.63;1.50;;;;;;;21.39;48.78;101222.22;5025275;28;20218;-66
2022/07/06 01:19:37;;;;;;;4.53;1.73;;;;;;;21.38;48.47;101214.31;5014582;28;20208;-64
2022/07/06 01:22:06;;;;;;;6.33;1.70;;;;;;;21.33;48.85;101220.31;5023141;28;20300;-65
2022/07/06 01:24:36;;;;;;;5.03;1.80;;;;;;;21.33;48.57;101206.84;5020077;28;20550;-65
2022/07/06 01:27:05;;;;;;;5.77;1.63;;;;;;;21.34;48.39;101219.28;5022661;28;20303;-65
2022/07/06 01:29:33;;;;;;;7.50;1.83;;;;;;;21.36;48.55;101201.03;5025114;28;20200;-66
2022/07/06 01:32:02;;;;;;;5.10;2.07;;;;;;;21.30;48.46;101207.22;5008691;28;20264;-64
2022/07/06 01:34:30;;;;;;;3.27;1.50;;;;;;;21.29;48.73;101210.94;5013847;28;20264;-64
2022/07/06 01:36:58;;;;;;;4.87;1.70;;;;;;;21.28;48.39;101209.31;5031248;28;20227;-63
2022/07/06 01:39:27;;;;;;;4.83;1.67;;;;;;;21.30;48.61;101206.38;5031312;28;20738;-63
2022/07/06 01:41:54;;;;;;;4.43;1.80;;;;;;;21.25;48.42;101209.69;5031518;28;20295;-65
2022/07/06 01:44:22;;;;;;;4.00;1.77;;;;;;;21.19;48.26;101205.13;5030880;28;20682;-64
2022/07/06 01:46:50;;;;;;;5.30;1.83;;;;;;;21.18;48.62;101213.41;5020810;28;20224;-64
2022/07/06 01:49:18;;;;;;;3.87;1.50;;;;;;;21.15;48.63;101205.66;5031357;28;20204;-64
2022/07/06 01:51:46;;;;;;;4.00;1.43;;;;;;;21.16;48.58;101204.63;5027583;28;20209;-64
2022/07/06 01:54:13;;;;;;;3.87;1.47;;;;;;;21.10;48.38;101203.59;5011264;28;20691;-64
2022/07/06 01:56:42;;;;;;;2.83;1.50;;;;;;;21.13;48.53;101205.84;5019484;28;20327;-64
2022/07/06 01:59:10;;;;;;;4.27;1.80;;;;;;;21.10;48.24;101200.06;5030779;28;20212;-64
2022/07/06 02:01:38;;;;;;;3.73;1.63;;;;;;;21.04;47.98;101207.88;5019621;28;20209;-65
2022/07/06 02:04:05;;;;;;;7.23;1.87;;;;;;;21.03;48.26;101208.09;5030264;28;20300;-64
2022/07/06 02:06:33;;;;;;;5.43;1.70;;;;;;;21.01;48.04;101202.91;5031051;28;20221;-65
2022/07/06 02:09:01;;;;;;;4.30;1.60;;;;;;;20.99;47.94;101204.13;5030629;28;20212;-65
2022/07/06 02:11:29;;;;;;;6.50;1.67;;;;;;;20.94;48.17;101212.78;5030534;28;20215;-65
2022/07/06 02:13:58;;;;;;;2.57;1.30;;;;;;;20.95;48.33;101213.63;5029932;28;20616;-64
2022/07/06 02:16:26;;;;;;;5.37;1.47;;;;;;;20.99;47.83;101209.53;5024283;28;20220;-64
2022/07/06 02:18:53;;;;;;;2.90;1.50;;;;;;;20.96;47.90;101215.31;5025656;28;20208;-64
2022/07/06 02:21:21;;;;;;;3.03;1.33;;;;;;;20.98;48.07;101218.63;5008069;28;20300;-65
2022/07/06 02:23:49;;;;;;;5.23;1.53;;;;;;;20.93;48.07;101227.31;5017305;28;20201;-65
2022/07/06 02:26:17;;;;;;;3.33;1.20;;;;;;;20.86;47.98;101220.22;5030218;28;20564;-65
2022/07/06 02:28:47;;;;;;;5.10;1.60;;;;;;;20.86;48.12;101222.91;5021441;28;20205;-65
2022/07/06 02:31:16;;;;;;;3.37;1.43;;;;;;;20.82;48.13;101229.75;5009824;28;20322;-65
2022/07/06 02:33:44;;;;;;;3.93;1.30;;;;;;;20.76;48.38;101225.13;5025717;28;20274;-65
2022/07/06 02:36:12;;;;;;;2.77;1.50;;;;;;;20.70;48.26;101234.81;5030731;28;20725;-65
2022/07/06 02:38:40;;;;;;;3.73;1.27;;;;;;;20.72;48.60;101240.03;5030549;28;20216;-65
2022/07/06 02:41:07;;;;;;;5.53;1.30;;;;;;;20.69;48.08;101230.47;5030933;28;20213;-65
2022/07/06 02:43:37;;;;;;;4.80;1.47;;;;;;;20.64;48.45;101235.63;5030347;28;20215;-65
2022/07/06 02:46:05;;;;;;;5.30;1.87;;;;;;;20.61;48.49;101231.44;5030610;28;20217;-65
2022/07/06 02:48:34;;;;;;;2.40;1.23;;;;;;;20.60;48.54;101231.63;5020442;28;20626;-65
2022/07/06 02:51:02;;;;;;;4.63;1.50;;;;;;;20.55;48.37;101234.94;5017728;28;20213;-65
2022/07/06 02:53:29;;;;;;;4.13;1.67;;;;;;;20.55;48.49;101234.94;5016109;28;20232;-65
2022/07/06 02:55:57;;;;;;;3.93;1.60;;;;;;;20.54;48.77;101230.56;5030277;28;20228;-65
2022/07/06 02:58:25;;;;;;;6.07;1.30;;;;;;;20.44;48.47;101238.13;5017591;28;20228;-65
2022/07/06 03:00:53;;;;;;;4.33;1.40;;;;;;;20.43;48.62;101239.16;5020648;28;20630;-64
2022/07/06 03:03:21;;;;;;;4.00;1.40;;;;;;;20.45;48.72;101245.19;5029851;28;20294;-64
2022/07/06 03:05:50;;;;;;;3.47;1.53;;;;;;;20.48;48.94;101247.50;5030294;28;20228;-65
2022/07/06 03:08:18;;;;;;;5.00;1.63;;;;;;;20.44;48.64;101248.06;5010637;28;20301;-65
2022/07/06 03:10:46;;;;;;;4.60;1.73;;;;;;;20.41;49.25;101251.97;5029734;28;20569;-64
2022/07/06 03:13:13;;;;;;;4.57;1.40;;;;;;;20.36;49.21;101257.13;5029950;28;20793;-64
2022/07/06 03:15:41;;;;;;;4.97;1.60;;;;;;;20.39;49.02;101256.75;5025244;28;20596;-64
2022/07/06 03:18:09;;;;;;;7.90;1.50;;;;;;;20.44;49.31;101259.69;5010640;28;20289;-65
2022/07/06 03:20:37;;;;;;;3.70;1.47;;;;;;;20.37;49.15;101264.19;5013533;28;20210;-64
2022/07/06 03:23:06;;;;;;;3.23;1.47;;;;;;;20.31;49.29;101264.94;5029665;28;20215;-64
2022/07/06 03:25:34;;;;;;;4.10;1.37;;;;;;;20.31;49.69;101259.56;5020140;28;20240;-64
2022/07/06 03:28:02;;;;;;;3.00;1.37;;;;;;;20.31;49.62;101259.56;5018508;28;20305;-65
2022/07/06 03:30:30;;;;;;;4.30;1.37;;;;;;;20.32;49.46;101260.38;5030187;28;20300;-64
2022/07/06 03:32:57;;;;;;;6.87;1.70;;;;;;;20.24;49.71;101258.63;5007826;28;20280;-64
2022/07/06 03:35:25;;;;;;;3.57;1.47;;;;;;;20.29;49.43;101261.59;5010960;28;20553;-65
2022/07/06 03:37:53;;;;;;;3.47;1.40;;;;;;;20.23;49.60;101265.03;5030004;28;20241;-65
2022/07/06 03:40:22;;;;;;;7.03;1.63;;;;;;;20.21;49.31;101256.34;5033225;28;20760;-65
2022/07/06 03:42:50;;;;;;;4.23;1.67;;;;;;;20.22;49.29;101266.09;5032843;28;20215;-65
2022/07/06 03:45:18;;;;;;;6.27;1.50;;;;;;;20.22;49.33;101266.09;5033622;28;20232;-65
2022/07/06 03:47:45;;;;;;;4.30;1.70;;;;;;;20.24;49.42;101258.63;5021269;28;20248;-66
2022/07/06 03:50:13;;;;;;;6.73;1.83;;;;;;;20.24;49.13;101274.78;5022589;28;20622;-65
2022/07/06 03:52:41;;;;;;;4.17;1.60;;;;;;;20.19;49.59;101274.53;5022538;28;20219;-65
2022/07/06 03:55:10;;;;;;;2.70;1.60;;;;;;;20.20;49.50;101273.53;5030612;28;20221;-65
2022/07/06 03:57:40;;;;;;;6.97;1.90;;;;;;;20.18;49.54;101280.94;5033290;28;20299;-65
2022/07/06 04:00:09;;;;;;;4.67;1.47;;;;;;;20.18;49.61;101281.78;5033467;28;20201;-66
2022/07/06 04:02:38;;;;;;;4.27;1.63;;;;;;;20.12;49.75;101287.09;5032697;28;20244;-66
2022/07/06 04:05:06;;;;;;;2.43;1.37;;;;;;;20.10;49.79;101281.91;5032718;28;20217;-65
2022/07/06 04:07:34;;;;;;;6.80;2.30;;;;;;;20.13;49.90;101278.00;5033087;28;20209;-65
2022/07/06 04:10:02;;;;;;;7.97;2.47;;;;;;;20.12;49.76;101277.16;5033228;28;20776;-65
2022/07/06 04:12:30;;;;;;;4.80;1.87;;;;;;;20.08;50.17;101280.41;5029235;28;20656;-66
2022/07/06 04:14:59;;;;;;;8.13;1.80;;;;;;;20.06;49.80;101282.47;5015900;28;20229;-65
2022/07/06 04:20:12;;;;;;;6.53;2.20;;;;;;;19.89;50.68;101282.69;5013770;28;20251;-65
2022/07/06 04:22:40;;;;;;;5.53;2.10;;;;;;;19.95;50.22;101291.06;5020860;28;20205;-65
2022/07/06 04:25:09;;;;;;;4.13;1.70;;;;;;;19.95;50.39;101282.97;5032531;28;20219;-65
2022/07/06 04:27:37;;;;;;;6.63;2.30;;;;;;;19.95;50.73;101280.28;5032606;28;20211;-65
2022/07/06 04:30:07;;;;;;;4.87;1.90;;;;;;;19.90;50.98;101284.38;5031943;28;20208;-65
2022/07/06 04:32:35;;;;;;;5.20;1.70;;;;;;;19.92;50.62;101295.78;5021355;28;20225;-65
2022/07/06 04:35:04;;;;;;;7.07;2.10;;;;;;;19.96;50.65;101287.34;5032475;28;20596;-66
2022/07/06 04:37:32;;;;;;;5.90;2.37;;;;;;;20.02;50.66;101295.47;5032374;28;20204;-65
2022/07/06 04:39:59;;;;;;;9.17;2.20;;;;;;;19.99;50.60;101289.63;5032355;28;20323;-65
2022/07/06 04:42:27;;;;;;;4.23;2.03;;;;;;;20.01;50.62;101296.50;5027256;28;20209;-65
2022/07/06 04:44:55;;;;;;;5.80;2.20;;;;;;;20.00;50.81;101289.44;5018304;28;20703;-66
2022/07/06 04:47:24;;;;;;;4.77;2.00;;;;;;;19.95;50.99;101293.75;5016126;28;20606;-65
2022/07/06 04:49:52;;;;;;;7.10;1.90;;;;;;;19.96;50.60;101292.72;5030406;28;20207;-65
2022/07/06 04:52:19;;;;;;;5.70;2.20;;;;;;;19.97;50.36;101294.38;5024027;28;20225;-66
2022/07/06 04:54:47;;;;;;;5.17;2.10;;;;;;;19.95;50.38;101296.44;5025967;28;20215;-66
2022/07/06 04:57:15;;;;;;;7.40;2.03;;;;;;;19.97;50.35;101299.75;5011267;28;20232;-65
2022/07/06 04:59:43;;;;;;;11.37;1.97;;;;;;;19.97;50.62;101300.59;5030777;28;20244;-66
2022/07/06 05:02:10;;;;;;;4.33;1.67;;;;;;;19.95;50.31;101299.97;5030037;28;20232;-66
2022/07/06 05:04:40;;;;;;;6.53;1.97;;;;;;;19.97;50.44;101311.34;5030084;28;20614;-65
2022/07/06 05:07:07;;;;;;;5.93;2.10;;;;;;;19.95;50.39;101310.72;5029701;28;20719;-66
2022/07/06 05:09:35;;;;;;;8.30;2.13;;;;;;;20.00;50.60;101315.53;5031699;28;20600;-66
2022/07/06 05:12:03;;;;;;;8.13;1.97;;;;;;;20.03;50.15;101316.00;5030819;28;20585;-65
2022/07/06 05:14:34;;;;;;;5.10;1.57;;;;;;;20.09;50.26;101317.94;5043122;28;20209;-65
2022/07/06 05:17:01;;;;;;;6.73;1.83;;;;;;;20.13;50.07;101321.91;5031184;28;20241;-65
2022/07/06 05:19:29;;;;;;;6.80;1.60;;;;;;;20.16;49.80;101321.53;5031093;28;20304;-66
2022/07/06 05:21:58;;;;;;;7.67;1.90;;;;;;;20.20;49.81;101327.38;5031773;28;20222;-65
2022/07/06 05:24:26;;;;;;;6.83;1.83;;;;;;;20.18;49.53;101318.66;5031557;28;20539;-65
2022/07/06 05:26:54;;;;;;;6.13;1.90;;;;;;;20.13;49.92;101321.91;5031333;28;20213;-65
2022/07/06 05:29:21;;;;;;;7.03;2.10;;;;;;;20.13;50.41;101321.91;5033799;28;20227;-66
2022/07/06 05:31:50;;;;;;;4.20;2.20;;;;;;;20.11;50.09;101323.13;5022132;28;20319;-65
2022/07/06 05:34:18;;;;;;;4.90;2.00;;;;;;;20.15;49.90;101332.47;5030979;28;20774;-64
2022/07/06 05:36:45;;;;;;;9.03;2.40;;;;;;;20.17;49.91;101333.13;5040849;28;20664;-65
2022/07/06 05:39:18;;;;;;;7.97;2.60;;;;;;;20.19;49.96;101331.94;5035644;28;20570;-66
2022/07/06 05:41:46;;;;;;;7.87;2.40;;;;;;;20.23;49.81;101343.13;5031491;28;20296;-65
2022/07/06 05:44:14;;;;;;;6.10;1.80;;;;;;;20.25;49.54;101338.41;5031043;28;20259;-67
2022/07/06 05:46:42;;;;;;;4.53;2.03;;;;;;;20.25;49.52;101338.41;5031287;28;20709;-65
2022/07/06 05:51:55;;;;;;;5.50;2.20;;;;;;;20.31;49.26;101334.97;5031367;28;20716;-65
2022/07/06 05:54:24;;;;;;;13.57;2.90;;;;;;;20.35;49.24;101330.88;5030388;28;20208;-65
2022/07/06 05:56:52;;;;;;;5.57;2.10;;;;;;;20.36;49.08;101343.31;5030858;28;20232;-65
2022/07/06 05:59:20;;;;;;;8.53;2.33;;;;;;;20.41;49.60;101323.88;5031011;28;20208;-66
2022/07/06 06:01:48;;;;;;;7.50;2.53;;;;;;;20.36;49.42;101329.84;5029179;28;20284;-65
2022/07/06 06:04:16;;;;;;;5.17;2.20;;;;;;;20.34;49.20;101331.91;5013985;28;20300;-64
2022/07/06 06:06:43;;;;;;;7.20;2.57;;;;;;;20.40;49.10;101333.84;5016427;28;20300;-64
2022/07/06 06:09:11;;;;;;;7.67;2.33;;;;;;;20.45;49.07;101334.09;5031284;28;20208;-64
2022/07/06 06:11:40;;;;;;;6.30;2.17;;;;;;;20.46;48.69;101335.78;5017091;28;20300;-65
2022/07/06 06:14:08;;;;;;;6.43;2.30;;;;;;;20.47;48.80;101345.53;5018596;28;20209;-65
2022/07/06 06:16:36;;;;;;;5.10;2.03;;;;;;;20.51;48.59;101336.00;5014748;28;20241;-65
2022/07/06 06:19:04;;;;;;;7.53;2.30;;;;;;;20.55;48.17;101348.09;5025029;28;20210;-65
2022/07/06 06:21:32;;;;;;;7.37;2.40;;;;;;;20.62;48.09;101348.97;5021389;28;20295;-65
2022/07/06 06:24:00;;;;;;;6.97;2.80;;;;;;;20.60;48.11;101345.63;5030233;28;20212;-65
2022/07/06 06:26:27;;;;;;;7.07;2.13;;;;;;;20.64;47.93;101344.25;5030582;28;20255;-65
2022/07/06 06:28:57;;;;;;;6.30;2.07;;;;;;;20.72;48.00;101355.91;5016793;28;20685;-65
2022/07/06 06:31:24;;;;;;;5.40;2.10;;;;;;;20.75;47.38;101350.16;5027229;28;20257;-65
2022/07/06 06:33:52;;;;;;;4.83;2.13;;;;;;;20.74;47.31;101351.16;5023414;28;20215;-64
2022/07/06 06:36:20;;;;;;;9.00;2.23;;;;;;;20.77;47.57;101345.38;5006787;28;20239;-65
2022/07/06 06:38:48;;;;;;;7.63;2.60;;;;;;;20.80;47.62;101362.00;5010924;28;20669;-64
2022/07/06 06:41:23;;;;;;;5.20;1.93;;;;;;;20.87;46.74;101362.91;5030693;28;20227;-65
2022/07/06 06:43:51;;;;;;;4.43;2.40;;;;;;;20.91;47.04;101356.09;5030471;28;20214;-65
2022/07/06 06:46:20;;;;;;;7.40;2.07;;;;;;;20.97;46.99;101365.25;5030622;28;20200;-65
2022/07/06 06:48:47;;;;;;;6.17;2.63;;;;;;;20.99;46.81;101360.50;5021331;28;20219;-66
2022/07/06 06:51:15;;;;;;;6.87;2.60;;;;;;;21.04;46.89;101363.44;5030513;28;20244;-65
2022/07/06 06:53:43;;;;;;;9.03;2.63;;;;;;;21.10;46.81;101365.38;5015967;28;20296;-65
2022/07/06 06:56:11;;;;;;;4.40;2.03;;;;;;;21.09;46.32;101360.19;5030767;28;20616;-65
2022/07/06 06:58:39;;;;;;;8.43;2.43;;;;;;;21.13;46.30;101366.84;5014293;28;20209;-65
2022/07/06 07:01:29;;;;;;;6.03;2.10;;;;;;;21.16;45.84;101364.59;5015593;28;20651;-66
2022/07/06 07:03:57;;;;;;;5.67;2.30;;;;;;;21.21;45.67;101375.66;5016141;28;20678;-65
2022/07/06 07:06:26;;;;;;;8.57;2.67;;;;;;;21.24;45.64;101369.03;5018382;28;20213;-64
2022/07/06 07:08:55;;;;;;;5.87;2.30;;;;;;;21.26;44.86;101367.81;5025832;28;20288;-65
2022/07/06 07:11:22;;;;;;;5.53;2.33;;;;;;;21.32;45.10;101375.13;5007209;28;20236;-65
2022/07/06 07:13:50;;;;;;;8.00;2.57;;;;;;;21.34;45.39;101375.75;5017452;28;20987;-65
2022/07/06 07:16:18;;;;;;;5.83;2.47;;;;;;;21.39;44.51;101378.69;5028370;28;20209;-65
2022/07/06 07:18:47;;;;;;;4.10;2.00;;;;;;;21.32;45.12;101377.81;5028748;28;20680;-65
2022/07/06 07:21:15;;;;;;;5.97;2.00;;;;;;;21.26;44.86;101373.22;5022264;28;20628;-65
2022/07/06 07:23:43;;;;;;;8.90;2.93;;;;;;;21.27;44.60;101374.88;5033309;28;20220;-65
2022/07/06 07:26:11;;;;;;;7.03;2.30;;;;;;;21.25;44.48;101376.09;5034141;28;20662;-65
2022/07/06 07:28:39;;;;;;;10.07;2.13;;;;;;;21.14;44.74;101363.94;5021107;28;20296;-64
2022/07/06 07:31:07;;;;;;;5.23;1.90;;;;;;;21.12;44.93;101378.66;5029397;28;20592;-64
2022/07/06 07:33:35;;;;;;;5.63;2.07;;;;;;;21.12;44.89;101374.09;5017034;28;20209;-64
2022/07/06 07:36:05;;;;;;;8.87;1.83;;;;;;;21.16;45.15;101378.09;5031296;28;20352;-64
2022/07/06 07:38:33;;;;;;;4.67;1.93;;;;;;;21.18;45.05;101376.06;5026413;28;20292;-64
2022/07/06 07:41:01;;;;;;;6.80;2.20;;;;;;;21.15;44.85;101381.81;5030059;28;20300;-66
2022/07/06 07:43:28;;;;;;;5.23;1.90;;;;;;;21.13;44.52;101380.31;5033400;28;20646;-64
2022/07/06 07:45:56;;;;;;;5.57;2.03;;;;;;;21.15;43.94;101376.41;5032910;28;20299;-66
2022/07/06 07:48:24;;;;;;;3.30;1.53;;;;;;;21.20;43.92;101387.47;5023258;28;20205;-65
2022/07/06 07:50:53;;;;;;;4.30;1.50;;;;;;;21.19;43.75;101376.91;5033597;28;20275;-65
2022/07/06 07:53:22;;;;;;;4.20;1.60;;;;;;;21.23;43.98;101379.00;5019017;28;20701;-65
2022/07/06 07:55:50;;;;;;;4.30;1.60;;;;;;;21.26;43.87;101377.78;5033056;28;20209;-65
2022/07/06 07:58:18;;;;;;;6.20;1.73;;;;;;;21.27;43.62;101377.59;5015168;28;20324;-65
2022/07/06 08:00:46;;;;;;;6.23;1.60;;;;;;;21.36;43.42;101378.28;5017851;28;20217;-65
2022/07/06 08:03:14;;;;;;;4.97;1.67;;;;;;;21.43;43.60;101379.16;5026085;28;20201;-65
2022/07/06 08:05:42;;;;;;;5.57;1.80;;;;;;;21.55;43.32;101376.75;5023362;28;20233;-65
2022/07/06 08:08:09;;;;;;;9.37;1.93;;;;;;;21.72;42.80;101365.41;5023415;28;20265;-65
2022/07/06 08:10:39;;;;;;;5.73;1.90;;;;;;;21.78;41.77;101366.47;5033152;28;20633;-65
2022/07/06 08:13:26;;;;;;;6.10;1.50;;;;;;;21.90;42.09;101364.88;5020624;28;20687;-65
2022/07/06 08:15:54;;;;;;;4.70;1.43;;;;;;;21.99;42.08;101363.69;5029672;28;20208;-65
2022/07/06 08:18:22;;;;;;;4.70;1.60;;;;;;;22.09;42.03;101364.16;5019294;28;20233;-64
2022/07/06 08:20:50;;;;;;;4.43;1.67;;;;;;;22.19;41.36;101368.34;5018180;28;20243;-64
2022/07/06 08:23:38;;;;;;;5.47;1.90;;;;;;;22.30;41.85;101365.06;5031513;28;20669;-66
2022/07/06 08:26:08;;;;;;;6.23;1.80;;;;;;;22.39;42.32;101359.28;5032337;28;20209;-65
2022/07/06 08:28:43;;;;;;;6.27;1.97;;;;;;;22.47;41.50;101369.06;5022908;28;20194;-65
2022/07/06 08:31:11;;;;;;;8.60;1.60;;;;;;;22.55;41.16;101368.03;5023635;28;20320;-65
2022/07/06 08:33:59;;;;;;;3.83;1.90;;;;;;;22.52;40.79;101366.56;5022223;28;20221;-65
2022/07/06 08:36:27;;;;;;;5.37;1.80;;;;;;;22.52;40.59;101370.09;5012515;28;20231;-65
2022/07/06 08:38:55;;;;;;;7.33;1.67;;;;;;;22.52;40.28;101363.84;5020575;28;20232;-65
2022/07/06 08:41:27;;;;;;;5.67;1.80;;;;;;;22.53;40.67;101376.34;5032486;28;20582;-65
2022/07/06 08:43:54;;;;;;;8.80;1.70;;;;;;;22.52;40.36;101380.91;5031981;28;20295;-64
2022/07/06 08:46:23;;;;;;;4.53;1.80;;;;;;;22.51;40.23;101381.97;5031123;28;20303;-64
2022/07/06 08:48:51;;;;;;;6.53;1.80;;;;;;;22.53;40.34;101376.34;5023613;28;20585;-64
2022/07/06 08:51:22;;;;;;;5.30;1.73;;;;;;;22.67;39.92;101386.16;5032591;28;20583;-64
2022/07/06 08:53:57;;;;;;;5.43;1.73;;;;;;;22.61;40.23;101388.81;5005023;28;20208;-66
2022/07/06 08:56:26;;;;;;;4.50;1.50;;;;;;;22.53;40.19;101381.75;5019532;28;20312;-65
2022/07/06 08:58:55;;;;;;;4.77;1.87;;;;;;;22.50;39.67;101390.28;5026732;28;20226;-65
2022/07/06 09:01:23;;;;;;;6.63;2.33;;;;;;;22.51;40.25;101389.25;5020181;28;20220;-65
2022/07/06 09:03:51;;;;;;;5.83;1.87;;;;;;;22.58;39.71;101389.25;5012328;28;20231;-65
2022/07/06 09:06:25;;;;;;;6.30;1.87;;;;;;;22.63;39.33;101382.19;5014438;28;20217;-66
2022/07/06 09:08:55;;;;;;;5.77;1.80;;;;;;;22.61;39.70;101381.53;5030673;28;20215;-64
2022/07/06 09:11:25;;;;;;;4.78;1.80;;;;;;;22.62;39.99;101383.22;5022482;28;20250;-65
2022/07/06 09:13:54;;;;;;;7.20;1.87;;;;;;;22.68;39.51;101384.28;5016573;28;20250;-64
2022/07/06 09:16:28;;;;;;;6.77;1.93;;;;;;;22.73;39.25;101379.09;5026387;28;20567;-65
2022/07/06 09:19:07;;;;;;;6.47;1.83;;;;;;;22.80;39.59;101378.09;5026772;28;20220;-65
2022/07/06 09:21:36;;;;;;;3.53;1.60;;;;;;;22.98;39.16;101374.75;5022467;28;20201;-66
2022/07/06 09:24:09;;;;;;;4.40;1.60;;;;;;;23.15;38.69;101375.19;5027075;28;20204;-65
2022/07/06 09:26:37;;;;;;;3.23;1.30;;;;;;;23.22;38.13;101379.53;5019018;28;20273;-65
2022/07/06 09:29:07;;;;;;;4.77;2.13;;;;;;;23.29;37.90;101376.84;5027684;28;20348;-65
2022/07/06 09:31:35;;;;;;;5.10;1.63;;;;;;;23.23;37.96;101378.50;5026636;28;20256;-66
2022/07/06 09:34:06;;;;;;;3.43;1.60;;;;;;;23.18;38.06;101374.78;5024761;28;20666;-65
2022/07/06 09:36:42;;;;;;;6.67;2.10;;;;;;;23.18;38.09;101370.19;5019259;28;20770;-65
2022/07/06 09:39:23;;;;;;;5.03;1.73;;;;;;;23.20;38.23;101370.00;5031799;28;20307;-65
2022/07/06 09:41:53;;;;;;;4.87;1.70;;;;;;;23.20;38.42;101373.53;5031918;28;20258;-65
2022/07/06 09:44:26;;;;;;;3.73;1.57;;;;;;;23.34;38.66;101371.63;5030065;28;20212;-65
2022/07/06 09:46:56;;;;;;;4.70;1.58;;;;;;;23.40;38.33;101373.47;5015681;28;20634;-65
2022/07/06 09:49:25;;;;;;;6.50;1.98;;;;;;;23.55;38.05;101365.19;5018557;28;20206;-65
2022/07/06 09:51:55;;;;;;;5.45;1.30;;;;;;;23.57;37.74;101373.94;5015263;28;20209;-65
2022/07/06 09:54:24;;;;;;;3.67;1.70;;;;;;;23.67;37.23;101377.00;5021293;28;20312;-65
2022/07/06 09:56:54;;;;;;;5.00;1.50;;;;;;;23.84;36.84;101366.53;5030739;28;20239;-65
2022/07/06 09:59:23;;;;;;;4.95;1.50;;;;;;;23.86;36.63;101370.69;5016164;28;20748;-65
2022/07/06 10:01:55;;;;;;;3.38;1.30;;;;;;;23.92;36.33;101367.13;5027192;28;20303;-65
2022/07/06 10:04:24;;;;;;;3.22;1.27;;;;;;;;;;5030394;28;20241;-66
2022/07/06 10:06:52;;;;;;;2.92;1.40;;;;;;;23.96;35.20;101370.25;5031634;28;20235;-65
2022/07/06 10:09:22;;;;;;;3.08;1.30;;;;;;;23.90;35.22;101373.84;5031478;28;20213;-65
2022/07/06 10:11:51;;;;;;;1.77;0.80;;;;;;;23.89;34.67;101388.41;5030449;28;20212;-65
2022/07/06 10:14:22;;;;;;;8.27;1.02;;;;;;;23.88;34.68;101382.16;5018474;28;20303;-65
2022/07/06 10:16:51;;;;;;;4.63;1.23;;;;;;;23.96;33.88;101381.91;5021378;28;20646;-65
2022/07/06 10:19:22;;;;;;;7.70;1.27;;;;;;;24.11;33.66;101367.25;5024583;28;20237;-66
2022/07/06 10:21:51;;;;;;;2.20;1.15;;;;;;;24.10;33.98;101371.06;5013306;28;20205;-65
2022/07/06 10:24:20;;;;;;;3.15;1.23;;;;;;;24.28;33.42;101374.72;5028526;28;20219;-65
2022/07/06 10:26:48;;;;;;;6.43;1.35;;;;;;;24.31;33.55;101377.00;5030215;28;20208;-65
2022/07/06 10:29:18;;;;;;;6.70;1.17;;;;;;;24.21;33.11;101373.09;5015745;28;20251;-65
2022/07/06 10:31:48;;;;;;;4.50;1.25;;;;;;;24.28;33.01;101373.88;5023506;28;20299;-65
2022/07/06 10:34:18;;;;;;;2.35;1.42;;;;;;;24.24;32.28;101369.97;5026751;28;20576;-65
2022/07/06 10:36:51;;;;;;;3.78;1.30;;;;;;;24.31;32.19;101376.16;5030483;28;20218;-65
2022/07/06 10:42:40;;;;;;;5.07;1.30;;;;;;;24.38;32.28;101366.94;5017521;28;20213;-65
2022/07/06 10:45:09;;;;;;;5.07;1.77;;;;;;;24.46;31.95;101362.31;5007006;28;20712;-65
2022/07/06 10:47:37;;;;;;;5.18;1.63;;;;;;;24.42;31.97;101361.94;5015441;28;20304;-66
2022/07/06 10:50:06;;;;;;;2.42;1.27;;;;;;;24.54;31.71;101362.09;5021397;28;20243;-65
2022/07/06 10:52:52;;;;;;;3.67;1.67;;;;;;;24.55;32.34;101361.00;5023088;28;20622;-65
2022/07/06 10:55:29;;;;;;;3.78;1.52;;;;;;;24.56;32.63;101362.66;5019927;28;20601;-65
2022/07/06 10:57:58;;;;;;;4.25;1.70;;;;;;;24.59;32.96;101362.25;5027054;28;20239;-64
2022/07/06 11:00:25;;;;;;;4.85;2.20;;;;;;;24.87;32.68;101354.53;5033873;28;20315;-65
2022/07/06 11:02:53;;;;;;;4.03;1.92;;;;;;;24.97;32.75;101354.91;5033093;28;20214;-65
2022/07/06 11:05:41;;;;;;;4.13;2.40;;;;;;;25.02;31.94;101355.06;5033712;28;20293;-66
2022/07/06 11:08:48;;;;;;;5.55;2.10;;;;;;;25.13;32.41;101355.41;5019791;28;20214;-66
2022/07/06 11:11:18;;;;;;;4.35;2.25;;;;;;;25.14;31.68;101352.47;5012638;28;20296;-65
2022/07/06 11:13:58;;;;;;;4.38;2.30;;;;;;;25.26;31.77;101356.09;5016994;28;20217;-65
2022/07/06 11:16:27;;;;;;;7.18;2.30;;;;;;;25.07;32.09;101354.38;5027377;28;20201;-66
2022/07/06 11:19:05;;;;;;;8.10;2.90;;;;;;;25.06;32.63;101353.59;5020427;28;20260;-65
2022/07/06 11:21:35;;;;;;;5.80;2.70;;;;;;;25.27;33.64;101355.03;5024274;28;20203;-66
2022/07/06 11:24:07;;;;;;;3.85;2.50;;;;;;;25.31;32.29;101358.16;5032624;28;20251;-65
2022/07/06 11:26:36;;;;;;;3.83;2.70;;;;;;;25.33;31.86;101353.34;5033562;28;20213;-65
2022/07/06 11:29:08;;;;;;;4.38;2.70;;;;;;;25.52;32.01;101356.88;5033760;28;20205;-65
2022/07/06 11:31:37;;;;;;;4.90;2.58;;;;;;;25.48;31.47;101360.06;5024901;28;20251;-65
2022/07/06 11:34:07;;;;;;;5.65;2.60;;;;;;;25.67;31.65;101352.78;5024386;28;20626;-66
2022/07/06 11:36:36;;;;;;;5.22;2.58;;;;;;;25.58;30.76;101356.81;5033371;28;20819;-65
2022/07/06 11:39:13;;;;;;;5.55;2.80;;;;;;;25.58;31.05;101356.00;5032724;28;20223;-65
2022/07/06 11:41:41;;;;;;;3.92;2.40;;;;;;;25.77;30.64;101350.34;5032212;28;20686;-65
2022/07/06 11:44:17;;;;;;;6.53;2.08;;;;;;;25.73;29.89;101349.16;5016193;28;20209;-66
2022/07/06 11:46:45;;;;;;;5.20;2.30;;;;;;;25.71;30.35;101350.44;5020152;28;20209;-65